createdAt,value
2017-09-14T00:01:40.977Z,96104.95
2017-09-14T00:04:08.537Z,96094.97
2017-09-14T00:06:36.516Z,96092.48
2017-09-14T00:09:04.075Z,96101.14
2017-09-14T00:11:31.637Z,96104.63
2017-09-14T00:13:59.265Z,96108.59
2017-09-14T00:16:27.220Z,96103.09
2017-09-14T00:18:54.853Z,96103.19
2017-09-14T00:21:22.412Z,96104.97
2017-09-14T00:23:50.011Z,96105.82
2017-09-14T00:26:17.594Z,96113.47
2017-09-14T00:28:45.163Z,96110.95
2017-09-14T00:31:12.753Z,96107.22
2017-09-14T00:33:40.714Z,96115.52
2017-09-14T00:36:08.288Z,96115.84
2017-09-14T00:38:35.870Z,96118.78
2017-09-14T00:41:03.439Z,96113.47
2017-09-14T00:43:31.023Z,96110.00
2017-09-14T00:45:58.623Z,96096.42
2017-09-14T00:48:26.180Z,96101.53
2017-09-14T00:50:53.792Z,96093.63
2017-09-14T00:53:21.367Z,96080.97
2017-09-14T00:55:48.956Z,96084.64
2017-09-14T00:58:23.281Z,96086.98
2017-09-14T01:00:51.152Z,96077.06
2017-09-14T01:03:18.948Z,96074.92
2017-09-14T01:05:46.522Z,96072.91
2017-09-14T01:08:14.084Z,96063.02
2017-09-14T01:10:41.621Z,96058.61
2017-09-14T01:13:09.188Z,96045.28
2017-09-14T01:15:36.727Z,96029.20
2017-09-14T01:18:04.329Z,96030.18
2017-09-14T01:20:31.915Z,96014.45
2017-09-14T01:22:59.907Z,96011.16
2017-09-14T01:25:27.500Z,96010.83
2017-09-14T01:27:55.053Z,96004.56
2017-09-14T01:30:22.618Z,96009.91
2017-09-14T01:32:50.287Z,96011.72
2017-09-14T01:35:23.010Z,96012.95
2017-09-14T01:37:50.579Z,96017.49
2017-09-14T01:40:18.173Z,96008.52
2017-09-14T01:42:45.731Z,96003.08
2017-09-14T01:45:13.390Z,96009.76
2017-09-14T01:47:40.956Z,96012.72
2017-09-14T01:50:08.526Z,96008.42
2017-09-14T01:52:36.131Z,96006.34
2017-09-14T01:55:03.702Z,96015.28
2017-09-14T01:57:31.299Z,95998.09
2017-09-14T01:59:58.913Z,96003.89
2017-09-14T02:02:26.494Z,96004.08
2017-09-14T02:04:54.091Z,95990.74
2017-09-14T02:07:21.634Z,96000.94
2017-09-14T02:09:49.254Z,95998.31
2017-09-14T02:12:16.837Z,95995.61
2017-09-14T02:14:44.416Z,95987.41
2017-09-14T02:17:12.058Z,95975.06
2017-09-14T02:19:39.638Z,95985.77
2017-09-14T02:22:07.211Z,95977.93
2017-09-14T02:24:34.743Z,95983.72
2017-09-14T02:27:02.329Z,95979.56
2017-09-14T02:29:29.905Z,95972.73
2017-09-14T02:31:57.490Z,95977.94
2017-09-14T02:34:25.034Z,95974.80
2017-09-14T02:36:52.603Z,95973.16
2017-09-14T02:39:20.177Z,95966.71
2017-09-14T02:44:21.643Z,95969.27
2017-09-14T02:46:49.198Z,95970.41
2017-09-14T02:49:16.795Z,95964.70
2017-09-14T02:51:44.357Z,95952.29
2017-09-14T02:54:11.954Z,95948.20
2017-09-14T02:56:39.520Z,95949.91
2017-09-14T02:59:07.382Z,95947.80
2017-09-14T03:01:34.972Z,95956.41
2017-09-14T03:04:02.524Z,95964.19
2017-09-14T03:06:30.186Z,95962.26
2017-09-14T03:08:57.761Z,95954.41
2017-09-14T03:11:25.853Z,95958.09
2017-09-14T03:13:53.449Z,95950.58
2017-09-14T03:16:21.059Z,95957.27
2017-09-14T03:18:48.646Z,95962.25
2017-09-14T03:21:16.370Z,95964.97
2017-09-14T03:23:45.048Z,95965.17
2017-09-14T03:26:12.617Z,95964.04
2017-09-14T03:28:40.496Z,95966.02
2017-09-14T03:31:08.083Z,95959.34
2017-09-14T03:33:35.677Z,95950.19
2017-09-14T03:36:03.253Z,95956.87
2017-09-14T03:38:30.811Z,95957.49
2017-09-14T03:40:58.392Z,95952.53
2017-09-14T03:43:25.987Z,95955.66
2017-09-14T03:45:53.988Z,95956.26
2017-09-14T03:48:21.562Z,95947.30
2017-09-14T03:50:49.128Z,95945.52
2017-09-14T03:53:16.741Z,95960.86
2017-09-14T03:55:44.297Z,95956.19
2017-09-14T03:58:12.261Z,95958.23
2017-09-14T04:00:40.092Z,95953.98
2017-09-14T04:03:07.661Z,95963.34
2017-09-14T04:05:35.247Z,95957.30
2017-09-14T04:08:02.829Z,95956.13
2017-09-14T04:10:30.405Z,95956.99
2017-09-14T04:12:58.075Z,95961.57
2017-09-14T04:15:25.675Z,95967.00
2017-09-14T04:17:53.257Z,95960.54
2017-09-14T04:20:20.854Z,95956.08
2017-09-14T04:22:48.448Z,95964.70
2017-09-14T04:27:43.173Z,95950.70
2017-09-14T04:30:10.750Z,95948.55
2017-09-14T04:32:38.321Z,95951.60
2017-09-14T04:35:05.905Z,95954.13
2017-09-14T04:37:33.498Z,95953.75
2017-09-14T04:40:01.061Z,95950.39
2017-09-14T04:42:28.652Z,95958.15
2017-09-14T04:44:56.213Z,95949.13
2017-09-14T04:47:23.862Z,95953.37
2017-09-14T04:49:51.429Z,95947.03
2017-09-14T04:52:19.237Z,95944.97
2017-09-14T04:54:46.784Z,95938.38
2017-09-14T04:57:14.417Z,95937.20
2017-09-14T04:59:41.989Z,95933.13
2017-09-14T05:02:09.573Z,95933.42
2017-09-14T05:04:37.155Z,95930.27
2017-09-14T05:07:04.718Z,95930.01
2017-09-14T05:09:32.317Z,95928.91
2017-09-14T05:12:00.325Z,95931.68
2017-09-14T05:14:27.900Z,95928.48
2017-09-14T05:16:55.470Z,95927.49
2017-09-14T05:19:22.999Z,95922.67
2017-09-14T05:21:50.562Z,95923.27
2017-09-14T05:24:18.135Z,95918.42
2017-09-14T05:26:45.718Z,95923.72
2017-09-14T05:29:13.281Z,95925.97
2017-09-14T05:31:42.075Z,95920.97
2017-09-14T05:34:09.657Z,95925.70
2017-09-14T05:36:37.258Z,95916.75
2017-09-14T05:39:04.799Z,95927.79
2017-09-14T05:41:32.322Z,95925.11
2017-09-14T05:43:59.926Z,95918.98
2017-09-14T05:46:27.551Z,95916.24
2017-09-14T05:48:55.341Z,95925.41
2017-09-14T05:51:22.936Z,95922.56
2017-09-14T05:53:52.705Z,95919.33
2017-09-14T05:56:20.312Z,95914.32
2017-09-14T05:58:47.887Z,95916.59
2017-09-14T06:01:15.473Z,95916.83
2017-09-14T06:03:43.020Z,95917.97
2017-09-14T06:06:10.587Z,95908.93
2017-09-14T06:08:38.115Z,95916.09
2017-09-14T06:11:05.712Z,95915.61
2017-09-14T06:13:33.285Z,95921.94
2017-09-14T06:16:00.889Z,95920.48
2017-09-14T06:18:31.917Z,95922.00
2017-09-14T06:20:59.907Z,95920.59
2017-09-14T06:23:27.485Z,95929.45
2017-09-14T06:25:55.053Z,95928.88
2017-09-14T06:28:23.161Z,95928.34
2017-09-14T06:30:50.718Z,95923.93
2017-09-14T06:33:18.427Z,95924.47
2017-09-14T06:35:46.021Z,95928.86
2017-09-14T06:38:13.599Z,95931.95
2017-09-14T06:40:41.166Z,95926.81
2017-09-14T06:43:08.783Z,95913.16
2017-09-14T06:45:36.477Z,95910.19
2017-09-14T06:48:04.058Z,95916.13
2017-09-14T06:50:31.643Z,95913.88
2017-09-14T06:52:59.266Z,95928.64
2017-09-14T06:55:26.881Z,95945.36
2017-09-14T06:57:54.447Z,95951.65
2017-09-14T07:00:22.061Z,95954.73
2017-09-14T07:02:49.619Z,95965.81
2017-09-14T07:05:17.279Z,95969.52
2017-09-14T07:07:44.850Z,95981.49
2017-09-14T07:10:12.437Z,95978.01
2017-09-14T07:12:40.159Z,95997.18
2017-09-14T07:15:07.719Z,96001.15
2017-09-14T07:17:35.328Z,96012.80
2017-09-14T07:20:02.899Z,96020.06
2017-09-14T07:22:30.513Z,96015.50
2017-09-14T07:24:58.183Z,96030.51
2017-09-14T07:27:25.912Z,96039.69
2017-09-14T07:29:53.502Z,96052.55
2017-09-14T07:32:21.080Z,96063.02
2017-09-14T07:34:48.686Z,96062.08
2017-09-14T07:37:17.293Z,96068.81
2017-09-14T07:39:44.881Z,96050.28
2017-09-14T07:42:12.463Z,96056.91
2017-09-14T07:44:40.020Z,96054.66
2017-09-14T07:47:07.658Z,96051.88
2017-09-14T07:49:35.233Z,96063.47
2017-09-14T07:52:02.819Z,96077.88
2017-09-14T07:54:30.372Z,96095.02
2017-09-14T07:56:58.019Z,96088.33
2017-09-14T07:59:25.574Z,96111.71
2017-09-14T08:01:53.458Z,96122.65
2017-09-14T08:04:21.009Z,96129.86
2017-09-14T08:06:48.581Z,96125.77
2017-09-14T08:09:16.179Z,96121.51
2017-09-14T08:11:44.782Z,96150.22
2017-09-14T08:14:12.378Z,96151.16
2017-09-14T08:16:40.101Z,96133.05
2017-09-14T08:19:08.786Z,96140.83
2017-09-14T08:21:36.434Z,96135.23
2017-09-14T08:24:04.042Z,96130.97
2017-09-14T08:26:31.601Z,96152.02
2017-09-14T08:28:59.186Z,96161.02
2017-09-14T08:31:26.805Z,96159.12
2017-09-14T08:33:54.412Z,96151.76
2017-09-14T08:36:22.017Z,96160.20
2017-09-14T08:38:49.604Z,96176.22
2017-09-14T08:41:17.225Z,96195.74
2017-09-14T08:43:44.841Z,96161.07
2017-09-14T08:46:12.591Z,96179.92
2017-09-14T08:48:40.172Z,96204.69
2017-09-14T08:51:07.795Z,96209.94
2017-09-14T08:53:35.449Z,96223.53
2017-09-14T08:56:03.051Z,96224.88
2017-09-14T08:58:30.671Z,96205.69
2017-09-14T09:00:58.269Z,96223.34
2017-09-14T09:03:25.927Z,96255.55
2017-09-14T09:05:53.542Z,96247.81
2017-09-14T09:08:21.569Z,96251.48
2017-09-14T09:10:49.194Z,96250.20
2017-09-14T09:13:16.783Z,96251.05
2017-09-14T09:15:44.542Z,96269.83
2017-09-14T09:18:12.150Z,96271.53
2017-09-14T09:20:39.778Z,96284.42
2017-09-14T09:23:07.633Z,96284.88
2017-09-14T09:25:35.227Z,96293.08
2017-09-14T09:28:03.835Z,96279.58
2017-09-14T09:30:31.481Z,96261.72
2017-09-14T09:32:59.084Z,96281.77
2017-09-14T09:35:26.691Z,96297.05
2017-09-14T09:37:54.328Z,96293.63
2017-09-14T09:40:21.921Z,96263.77
2017-09-14T09:42:49.564Z,96245.44
2017-09-14T09:45:17.141Z,96241.88
2017-09-14T09:47:44.774Z,96229.42
2017-09-14T09:50:12.391Z,96240.45
2017-09-14T09:52:39.994Z,96283.53
2017-09-14T09:55:07.564Z,96311.42
2017-09-14T09:57:35.189Z,96318.44
2017-09-14T10:00:02.776Z,96330.30
2017-09-14T10:02:30.350Z,96314.69
2017-09-14T10:04:57.974Z,96309.56
2017-09-14T10:07:25.573Z,96309.34
2017-09-14T10:09:53.609Z,96300.80
2017-09-14T10:12:21.192Z,96306.18
2017-09-14T10:14:48.772Z,96315.51
2017-09-14T10:17:16.383Z,96324.23
2017-09-14T10:19:43.962Z,96324.75
2017-09-14T10:22:11.901Z,96342.23
2017-09-14T10:24:39.483Z,96351.61
2017-09-14T10:27:07.032Z,96343.16
2017-09-14T10:29:34.611Z,96345.09
2017-09-14T10:32:02.207Z,96349.84
2017-09-14T10:34:29.911Z,96345.70
2017-09-14T10:36:57.510Z,96356.52
2017-09-14T10:39:25.089Z,96348.06
2017-09-14T10:41:52.683Z,96345.06
2017-09-14T10:44:20.580Z,96383.34
2017-09-14T10:46:49.040Z,96386.77
2017-09-14T10:49:16.613Z,96386.73
2017-09-14T10:51:44.211Z,96379.53
2017-09-14T10:54:13.241Z,96385.12
2017-09-14T10:56:41.103Z,96389.02
2017-09-14T10:59:09.672Z,96389.53
2017-09-14T11:01:38.723Z,96396.34
2017-09-14T11:04:06.421Z,96410.72
2017-09-14T11:06:34.028Z,96418.86
2017-09-14T11:09:01.572Z,96414.58
2017-09-14T11:11:29.139Z,96429.42
2017-09-14T11:13:56.697Z,96432.82
2017-09-14T11:16:24.317Z,96450.39
2017-09-14T11:18:51.966Z,96459.06
2017-09-14T11:21:19.579Z,96487.14
2017-09-14T11:23:47.175Z,96502.02
2017-09-14T11:26:14.744Z,96507.98
2017-09-14T11:28:42.672Z,96519.50
2017-09-14T11:31:10.232Z,96501.22
2017-09-14T11:33:37.794Z,96512.70
2017-09-14T11:36:05.353Z,96506.32
2017-09-14T11:38:32.920Z,96514.08
2017-09-14T11:41:00.527Z,96514.91
2017-09-14T11:43:28.119Z,96524.22
2017-09-14T11:45:55.709Z,96523.36
2017-09-14T11:48:23.309Z,96515.75
2017-09-14T11:50:50.909Z,96528.47
2017-09-14T11:53:18.552Z,96531.03
2017-09-14T11:55:46.184Z,96542.05
2017-09-14T11:58:13.825Z,96520.92
2017-09-14T12:00:41.401Z,96532.80
2017-09-14T12:03:09.251Z,96532.81
2017-09-14T12:05:36.832Z,96536.14
2017-09-14T12:08:04.382Z,96528.92
2017-09-14T12:10:31.955Z,96533.59
2017-09-14T12:12:59.537Z,96525.09
2017-09-14T12:15:27.146Z,96526.81
2017-09-14T12:17:54.754Z,96525.95
2017-09-14T12:20:22.799Z,96537.78
2017-09-14T12:22:50.388Z,96542.03
2017-09-14T12:25:17.959Z,96544.19
2017-09-14T12:27:46.166Z,96559.50
2017-09-14T12:30:13.740Z,96561.20
2017-09-14T12:32:41.318Z,96570.96
2017-09-14T12:35:08.938Z,96577.35
2017-09-14T12:37:36.936Z,96579.50
2017-09-14T12:40:05.105Z,96584.15
2017-09-14T12:45:06.743Z,96585.41
2017-09-14T12:47:34.357Z,96577.38
2017-09-14T12:50:01.966Z,96581.22
2017-09-14T12:52:29.562Z,96580.82
2017-09-14T12:54:57.149Z,96580.41
2017-09-14T12:57:24.716Z,96583.80
2017-09-14T12:59:52.311Z,96588.45
2017-09-14T13:02:19.917Z,96596.53
2017-09-14T13:04:47.597Z,96591.45
2017-09-14T13:07:15.218Z,96584.22
2017-09-14T13:09:43.497Z,96576.17
2017-09-14T13:12:11.181Z,96576.63
2017-09-14T13:14:38.798Z,96571.94
2017-09-14T13:17:06.430Z,96583.40
2017-09-14T13:19:34.182Z,96582.11
2017-09-14T13:22:02.017Z,96586.37
2017-09-14T13:24:29.677Z,96591.45
2017-09-14T13:26:57.310Z,96592.73
2017-09-14T13:29:24.932Z,96596.95
2017-09-14T13:31:52.536Z,96593.97
2017-09-14T13:34:20.166Z,96596.08
2017-09-14T13:36:47.819Z,96603.30
2017-09-14T13:39:15.416Z,96591.85
2017-09-14T13:41:43.058Z,96596.54
2017-09-14T13:44:10.640Z,96594.41
2017-09-14T13:46:38.639Z,96600.36
2017-09-14T13:49:06.232Z,96590.17
2017-09-14T13:51:33.885Z,96605.41
2017-09-14T13:54:01.490Z,96602.02
2017-09-14T13:56:29.090Z,96605.43
2017-09-14T13:58:56.721Z,96607.95
2017-09-14T14:01:24.328Z,96620.27
2017-09-14T14:03:51.942Z,96600.36
2017-09-14T14:06:19.549Z,96607.55
2017-09-14T14:08:47.115Z,96606.29
2017-09-14T14:11:15.972Z,96601.62
2017-09-14T14:13:43.618Z,96600.38
2017-09-14T14:16:11.234Z,96608.40
2017-09-14T14:18:38.832Z,96606.29
2017-09-14T14:21:06.484Z,96597.41
2017-09-14T14:23:34.133Z,96605.03
2017-09-14T14:26:01.771Z,96599.09
2017-09-14T14:28:29.385Z,96611.39
2017-09-14T14:30:57.031Z,96616.47
2017-09-14T14:33:24.640Z,96603.76
2017-09-14T14:35:52.248Z,96599.09
2017-09-14T14:38:20.275Z,96608.83
2017-09-14T14:40:47.865Z,96613.05
2017-09-14T14:43:15.464Z,96620.65
2017-09-14T14:45:43.081Z,96646.47
2017-09-14T14:48:10.671Z,96650.70
2017-09-14T14:50:38.314Z,96637.14
2017-09-14T14:53:05.903Z,96629.93
2017-09-14T14:55:33.916Z,96621.05
2017-09-14T14:58:01.503Z,96616.81
2017-09-14T15:00:29.618Z,96607.52
2017-09-14T15:02:57.248Z,96604.55
2017-09-14T15:05:24.830Z,96619.77
2017-09-14T15:07:52.837Z,96645.58
2017-09-14T15:10:20.414Z,96640.50
2017-09-14T15:12:48.002Z,96627.81
2017-09-14T15:15:15.624Z,96642.61
2017-09-14T15:17:43.225Z,96644.75
2017-09-14T15:20:11.142Z,96630.78
2017-09-14T15:22:38.701Z,96615.97
2017-09-14T15:25:06.237Z,96633.75
2017-09-14T15:27:33.876Z,96635.84
2017-09-14T15:30:01.514Z,96622.30
2017-09-14T15:32:29.092Z,96629.09
2017-09-14T15:34:56.654Z,96639.25
2017-09-14T15:37:24.567Z,96635.86
2017-09-14T15:39:57.750Z,96648.52
2017-09-14T15:42:31.377Z,96661.66
2017-09-14T15:45:04.505Z,96649.79
2017-09-14T15:47:32.422Z,96655.31
2017-09-14T15:50:05.594Z,96655.73
2017-09-14T15:52:33.481Z,96654.89
2017-09-14T15:55:01.055Z,96650.22
2017-09-14T15:57:28.622Z,96632.46
2017-09-14T15:59:56.242Z,96629.91
2017-09-14T16:02:23.842Z,96627.38
2017-09-14T16:04:51.796Z,96626.98
2017-09-14T16:07:19.389Z,96626.97
2017-09-14T16:09:46.980Z,96642.21
2017-09-14T16:12:14.599Z,96653.63
2017-09-14T16:14:42.164Z,96656.19
2017-09-14T16:17:10.609Z,96649.42
2017-09-14T16:19:38.215Z,96666.78
2017-09-14T16:22:06.090Z,96671.86
2017-09-14T16:24:33.674Z,96676.94
2017-09-14T16:27:01.304Z,96676.08
2017-09-14T16:29:28.893Z,96622.73
2017-09-14T16:31:56.465Z,96585.93
2017-09-14T16:34:24.348Z,96591.44
2017-09-14T16:36:51.921Z,96635.45
2017-09-14T16:39:19.496Z,96653.24
2017-09-14T16:41:47.073Z,96656.20
2017-09-14T16:44:14.632Z,96653.23
2017-09-14T16:46:42.224Z,96661.30
2017-09-14T16:49:09.806Z,96663.88
2017-09-14T16:51:39.030Z,96667.67
2017-09-14T16:54:06.586Z,96662.63
2017-09-14T16:56:34.370Z,96663.89
2017-09-14T16:59:01.961Z,96669.80
2017-09-14T17:01:29.557Z,96669.41
2017-09-14T17:03:57.223Z,96668.10
2017-09-14T17:06:24.804Z,96664.30
2017-09-14T17:08:52.704Z,96657.94
2017-09-14T17:11:20.264Z,96655.42
2017-09-14T17:13:47.866Z,96646.48
2017-09-14T17:16:15.506Z,96651.56
2017-09-14T17:18:43.185Z,96657.05
2017-09-14T17:21:10.801Z,96664.69
2017-09-14T17:23:38.393Z,96667.22
2017-09-14T17:26:06.011Z,96666.38
2017-09-14T17:28:33.585Z,96673.98
2017-09-14T17:31:01.511Z,96670.16
2017-09-14T17:33:30.054Z,96677.36
2017-09-14T17:35:57.639Z,96682.03
2017-09-14T17:38:25.250Z,96687.52
2017-09-14T17:40:53.216Z,96689.20
2017-09-14T17:43:20.862Z,96688.80
2017-09-14T17:45:49.149Z,96694.29
2017-09-14T17:48:16.758Z,96707.38
2017-09-14T17:50:44.367Z,96714.16
2017-09-14T17:53:12.203Z,96718.80
2017-09-14T17:55:39.923Z,96716.69
2017-09-14T17:58:07.564Z,96719.66
2017-09-14T18:00:35.196Z,96724.73
2017-09-14T18:03:02.974Z,96725.16
2017-09-14T18:05:31.178Z,96732.78
2017-09-14T18:07:58.727Z,96740.40
2017-09-14T18:10:26.312Z,96750.55
2017-09-14T18:12:53.910Z,96748.41
2017-09-14T18:15:21.885Z,96752.63
2017-09-14T18:17:49.675Z,96752.20
2017-09-14T18:20:17.220Z,96756.84
2017-09-14T18:22:44.826Z,96764.89
2017-09-14T18:25:12.403Z,96769.11
2017-09-14T18:27:40.002Z,96776.34
2017-09-14T18:30:07.595Z,96779.29
2017-09-14T18:32:36.814Z,96773.34
2017-09-14T18:35:04.322Z,96772.48
2017-09-14T18:37:31.919Z,96770.36
2017-09-14T18:39:59.458Z,96778.41
2017-09-14T18:42:27.333Z,96783.48
2017-09-14T18:44:55.367Z,96780.09
2017-09-14T18:47:23.030Z,96780.52
2017-09-14T18:49:50.634Z,96793.64
2017-09-14T18:52:18.189Z,96791.96
2017-09-14T18:54:47.180Z,96792.82
2017-09-14T18:57:14.734Z,96799.19
2017-09-14T18:59:42.329Z,96800.05
2017-09-14T19:02:09.925Z,96800.45
2017-09-14T19:04:37.912Z,96798.78
2017-09-14T19:07:05.522Z,96798.38
2017-09-14T19:09:33.103Z,96801.33
2017-09-14T19:12:01.664Z,96800.48
2017-09-14T19:14:29.233Z,96808.53
2017-09-14T19:16:56.827Z,96811.47
2017-09-14T19:19:24.563Z,96814.86
2017-09-14T19:21:52.132Z,96813.57
2017-09-14T19:24:20.112Z,96818.25
2017-09-14T19:26:47.726Z,96820.77
2017-09-14T19:29:15.295Z,96818.65
2017-09-14T19:31:43.042Z,96836.42
2017-09-14T19:34:10.690Z,96839.38
2017-09-14T19:36:38.634Z,96844.47
2017-09-14T19:39:06.367Z,96847.39
2017-09-14T19:41:34.013Z,96836.84
2017-09-14T19:44:01.620Z,96838.09
2017-09-14T19:46:29.247Z,96842.30
2017-09-14T19:48:57.148Z,96853.70
2017-09-14T19:51:24.802Z,96855.41
2017-09-14T19:53:54.151Z,96857.92
2017-09-14T19:56:21.870Z,96855.38
2017-09-14T19:58:49.403Z,96856.66
2017-09-14T20:01:17.000Z,96856.62
2017-09-14T20:03:44.586Z,96862.95
2017-09-14T20:06:13.682Z,96865.49
2017-09-14T20:08:41.262Z,96866.73
2017-09-14T20:11:08.850Z,96866.75
2017-09-14T20:13:36.650Z,96873.05
2017-09-14T20:16:04.327Z,96879.39
2017-09-14T20:18:32.087Z,96872.22
2017-09-14T20:20:59.783Z,96886.57
2017-09-14T20:23:27.746Z,96884.43
2017-09-14T20:25:55.469Z,96889.91
2017-09-14T20:28:23.065Z,96903.88
2017-09-14T20:30:50.686Z,96894.59
2017-09-14T20:33:18.290Z,96899.23
2017-09-14T20:35:45.904Z,96896.70
2017-09-14T20:38:13.681Z,96920.41
2017-09-14T20:40:41.589Z,96908.11
2017-09-14T20:43:10.298Z,96899.63
2017-09-14T20:45:37.880Z,96902.18
2017-09-14T20:48:05.677Z,96902.59
2017-09-14T20:50:33.263Z,96900.91
2017-09-14T20:53:01.934Z,96912.31
2017-09-14T20:55:29.538Z,96914.41
2017-09-14T20:57:57.442Z,96911.05
2017-09-14T21:00:26.217Z,96919.92
2017-09-14T21:02:53.812Z,96924.98
2017-09-14T21:05:21.410Z,96930.06
2017-09-14T21:07:48.992Z,96935.59
2017-09-14T21:10:16.946Z,96923.35
2017-09-14T21:12:44.544Z,96930.52
2017-09-14T21:15:12.114Z,96935.19
2017-09-14T21:17:39.845Z,96931.79
2017-09-14T21:20:07.435Z,96942.77
2017-09-14T21:22:35.040Z,96941.53
2017-09-14T21:25:02.641Z,96938.16
2017-09-14T21:27:30.595Z,96940.72
2017-09-14T21:29:58.177Z,96947.47
2017-09-14T21:32:25.876Z,96944.97
2017-09-14T21:34:53.507Z,96944.13
2017-09-14T21:37:21.116Z,96950.88
2017-09-14T21:39:48.722Z,96946.62
2017-09-14T21:42:16.286Z,96950.00
2017-09-14T21:44:44.287Z,96941.09
2017-09-14T21:47:11.806Z,96941.95
2017-09-14T21:49:39.555Z,96949.95
2017-09-14T21:52:07.159Z,96949.11
2017-09-14T21:54:34.745Z,96949.06
2017-09-14T21:57:02.338Z,96957.97
2017-09-14T21:59:29.876Z,96956.72
2017-09-14T22:01:58.210Z,96955.43
2017-09-14T22:04:25.790Z,96957.95
2017-09-14T22:06:53.437Z,96956.70
2017-09-14T22:09:21.070Z,96958.39
2017-09-14T22:11:48.652Z,96953.31
2017-09-14T22:14:16.243Z,96961.74
2017-09-14T22:16:43.822Z,96959.22
2017-09-14T22:19:11.708Z,96963.41
2017-09-14T22:21:39.277Z,96957.84
2017-09-14T22:24:06.978Z,96961.26
2017-09-14T22:26:34.651Z,96958.30
2017-09-14T22:29:02.200Z,96964.25
2017-09-14T22:31:29.836Z,96946.48
2017-09-14T22:33:57.415Z,96963.41
2017-09-14T22:36:25.346Z,96959.56
2017-09-14T22:38:53.104Z,96954.48
2017-09-14T22:41:20.717Z,96956.59
2017-09-14T22:43:48.333Z,96954.88
2017-09-14T22:46:15.891Z,96960.80
2017-09-14T22:48:43.469Z,96965.41
2017-09-14T22:51:11.080Z,96963.66
2017-09-14T22:53:39.082Z,96956.03
2017-09-14T22:56:06.913Z,96961.53
2017-09-14T22:58:34.555Z,96964.45
2017-09-14T23:01:02.176Z,96956.41
2017-09-14T23:03:29.743Z,96953.42
2017-09-14T23:05:57.361Z,96963.97
2017-09-14T23:08:24.913Z,96959.77
2017-09-14T23:10:52.857Z,96948.76
2017-09-14T23:13:20.625Z,96949.58
2017-09-14T23:15:48.238Z,96953.83
2017-09-14T23:18:15.817Z,96941.97
2017-09-14T23:20:43.395Z,96943.24
2017-09-14T23:23:10.972Z,96942.38
2017-09-14T23:25:38.698Z,96941.12
2017-09-14T23:28:06.763Z,96948.76
2017-09-14T23:30:34.343Z,96948.36
2017-09-14T23:33:02.115Z,96947.11
2017-09-14T23:35:29.708Z,96941.62
2017-09-14T23:37:57.275Z,96950.09
2017-09-14T23:40:24.875Z,96952.66
2017-09-14T23:42:52.435Z,96947.58
2017-09-14T23:45:20.403Z,96949.29
2017-09-14T23:47:47.990Z,96948.45
2017-09-14T23:50:15.572Z,96952.28
2017-09-14T23:52:43.137Z,96952.67
2017-09-14T23:55:10.700Z,96953.56
2017-09-14T23:57:38.291Z,96960.33
